Anita, Iowa
Current Conditions -  °F | °C
As of 8:55 PM on Thursday 27 Nov 2014 (Local Time) from KAIO Reporting Station
Overcast Overcast  
Wind Chill: 11°   Ceiling: 12000
Heat Index: 19°   Visibility: 10mi
Dew Point: 12°   Wind: 6mph
Humidity: 74%   Direction: 160°SSE
Pressure: 30.25"   Gusts: NA
Location:  41.45°N, 94.76°W
Report Text: KAIO 280255Z AUTO 16005KT 10SM OVC120 M07/M11 A3025 RMK AO2
Loading
Personal Weather Stations






























Interactive Weather Map New forecast layout! Learn more

10-Day Weather Forecast

Advertisements
Track Severe Weather on mobile